createdAt,value
2022-08-07T00:00:47.378Z,14.2
2022-08-07T00:02:03.664Z,14.3
2022-08-07T00:03:19.956Z,14.4
2022-08-07T00:04:36.250Z,14.4
2022-08-07T00:05:51.552Z,14.5
2022-08-07T00:07:07.863Z,14.5
2022-08-07T00:08:24.150Z,14.6
2022-08-07T00:09:40.444Z,14.6
2022-08-07T00:10:56.735Z,14.6
2022-08-07T00:12:13.028Z,14.6
2022-08-07T00:13:29.340Z,14.6
2022-08-07T00:14:45.632Z,14.6
2022-08-07T00:16:01.914Z,14.6
2022-08-07T00:17:18.211Z,14.6
2022-08-07T00:18:34.505Z,14.6
2022-08-07T00:19:50.792Z,14.5
2022-08-07T00:21:07.098Z,14.5
2022-08-07T00:22:22.406Z,14.5
2022-08-07T00:23:38.702Z,14.6
2022-08-07T00:24:55.003Z,14.5
2022-08-07T00:26:11.298Z,14.6
2022-08-07T00:27:27.584Z,14.5
2022-08-07T00:28:43.870Z,14.5
2022-08-07T00:30:00.177Z,14.5
2022-08-07T00:31:16.474Z,14.6
2022-08-07T00:32:32.000Z,14.5
2022-08-07T00:33:49.050Z,14.5
2022-08-07T00:35:05.351Z,14.5
2022-08-07T00:36:21.644Z,14.5
2022-08-07T00:37:37.930Z,14.4
2022-08-07T00:38:53.240Z,14.4
2022-08-07T00:41:25.837Z,14.4
2022-08-07T00:42:42.124Z,14.4
2022-08-07T00:43:58.427Z,14.3
2022-08-07T00:45:14.715Z,14.3
2022-08-07T00:46:31.012Z,14.2
2022-08-07T00:47:47.323Z,14.2
2022-08-07T00:49:03.612Z,14.1
2022-08-07T00:50:19.899Z,14.1
2022-08-07T00:51:36.191Z,14
2022-08-07T00:52:52.493Z,14
2022-08-07T00:54:08.783Z,13.9
2022-08-07T00:55:24.101Z,13.9
2022-08-07T00:56:40.378Z,13.8
2022-08-07T00:57:56.674Z,13.7
2022-08-07T00:59:12.967Z,13.7
2022-08-07T01:00:29.262Z,13.6
2022-08-07T01:01:45.576Z,13.6
2022-08-07T01:03:01.861Z,13.6
2022-08-07T01:04:18.162Z,13.7
2022-08-07T01:05:34.451Z,13.6
2022-08-07T01:06:50.742Z,13.7
2022-08-07T01:08:07.040Z,13.6
2022-08-07T01:09:23.333Z,13.7
2022-08-07T01:10:39.622Z,13.6
2022-08-07T01:11:54.943Z,13.6
2022-08-07T01:13:11.225Z,13.6
2022-08-07T01:14:27.521Z,13.5
2022-08-07T01:15:43.825Z,13.4
2022-08-07T01:17:00.125Z,13.2
2022-08-07T01:18:16.399Z,13
2022-08-07T01:19:32.698Z,12.9
2022-08-07T01:20:49.000Z,12.7
2022-08-07T01:22:05.297Z,12.6
2022-08-07T01:23:21.592Z,12.5
2022-08-07T01:24:37.880Z,12.4
2022-08-07T01:27:10.468Z,12.2
2022-08-07T01:28:25.789Z,12.2
2022-08-07T01:29:42.071Z,12.2
2022-08-07T01:30:58.366Z,12.2
2022-08-07T01:32:14.662Z,12.2
2022-08-07T01:33:30.951Z,12.2
2022-08-07T01:34:47.000Z,12.2
2022-08-07T01:36:03.539Z,12.3
2022-08-07T01:37:19.843Z,12.4
2022-08-07T01:38:36.134Z,12.5
2022-08-07T01:39:52.426Z,12.6
2022-08-07T01:41:08.732Z,12.7
2022-08-07T01:42:25.024Z,12.8
2022-08-07T01:43:41.309Z,12.9
2022-08-07T01:44:56.627Z,12.9
2022-08-07T01:46:12.911Z,12.9
2022-08-07T01:47:29.203Z,12.9
2022-08-07T01:48:45.506Z,12.8
2022-08-07T01:50:01.803Z,12.8
2022-08-07T01:51:18.090Z,12.7
2022-08-07T01:52:34.385Z,12.7
2022-08-07T01:53:50.675Z,12.6
2022-08-07T01:55:06.973Z,12.5
2022-08-07T01:56:23.282Z,12.5
2022-08-07T01:57:39.560Z,12.4
2022-08-07T01:58:55.857Z,12.4
2022-08-07T02:00:12.150Z,12.3
2022-08-07T02:01:27.470Z,12.3
2022-08-07T02:02:43.761Z,12.2
2022-08-07T02:04:00.061Z,12.2
2022-08-07T02:05:16.363Z,12.1
2022-08-07T02:06:32.656Z,12.1
2022-08-07T02:07:48.951Z,12.1
2022-08-07T02:09:05.239Z,12
2022-08-07T02:10:21.534Z,12
2022-08-07T02:11:37.819Z,12
2022-08-07T02:12:54.116Z,12
2022-08-07T02:14:10.406Z,12
2022-08-07T02:15:26.716Z,12
2022-08-07T02:16:43.011Z,12
2022-08-07T02:17:58.309Z,12
2022-08-07T02:19:14.611Z,12
2022-08-07T02:20:30.911Z,12
2022-08-07T02:21:47.199Z,11.9
2022-08-07T02:23:03.489Z,11.9
2022-08-07T02:24:19.778Z,11.9
2022-08-07T02:25:36.070Z,11.9
2022-08-07T02:26:52.367Z,11.9
2022-08-07T02:28:08.660Z,11.9
2022-08-07T02:29:24.964Z,11.9
2022-08-07T02:30:41.251Z,11.9
2022-08-07T02:31:57.553Z,12
2022-08-07T02:33:13.855Z,12
2022-08-07T02:34:29.149Z,12
2022-08-07T02:35:45.446Z,12.1
2022-08-07T02:37:01.752Z,12
2022-08-07T02:38:18.035Z,12
2022-08-07T02:39:34.330Z,12
2022-08-07T02:40:50.629Z,12
2022-08-07T02:42:06.927Z,12
2022-08-07T02:43:23.228Z,12
2022-08-07T02:44:39.504Z,12
2022-08-07T02:45:55.802Z,12
2022-08-07T02:47:12.095Z,12
2022-08-07T02:48:28.395Z,12
2022-08-07T02:49:44.629Z,12
2022-08-07T02:51:00.927Z,12
2022-08-07T02:52:16.237Z,12
2022-08-07T02:53:32.530Z,12
2022-08-07T02:54:48.822Z,11.9
2022-08-07T02:56:05.085Z,11.9
2022-08-07T02:57:21.328Z,11.9
2022-08-07T02:58:37.610Z,11.8
2022-08-07T02:59:53.906Z,11.8
2022-08-07T03:01:10.211Z,11.7
2022-08-07T03:02:26.504Z,11.8
2022-08-07T03:03:42.763Z,11.7
2022-08-07T03:04:59.043Z,11.7
2022-08-07T03:06:15.301Z,11.7
2022-08-07T03:07:31.550Z,11.7
2022-08-07T03:08:46.804Z,11.7
2022-08-07T03:10:03.043Z,11.7
2022-08-07T03:11:19.271Z,11.7
2022-08-07T03:13:51.752Z,11.6
2022-08-07T03:15:07.021Z,11.6
2022-08-07T03:16:23.259Z,11.6
2022-08-07T03:17:39.491Z,11.6
2022-08-07T03:18:55.742Z,11.6
2022-08-07T03:20:11.984Z,11.6
2022-08-07T03:21:28.220Z,11.6
2022-08-07T03:24:00.710Z,11.5
2022-08-07T03:25:16.948Z,11.5
2022-08-07T03:26:33.185Z,11.5
2022-08-07T03:27:49.415Z,11.4
2022-08-07T03:29:05.670Z,11.4
2022-08-07T03:30:21.900Z,11.3
2022-08-07T03:31:37.157Z,11.3
2022-08-07T03:32:53.396Z,11.3
2022-08-07T03:34:09.638Z,11.3
2022-08-07T03:35:25.888Z,11.3
2022-08-07T03:36:42.126Z,11.3
2022-08-07T03:37:58.364Z,11.2
2022-08-07T03:39:14.607Z,11.3
2022-08-07T03:40:30.838Z,11.2
2022-08-07T03:41:47.095Z,11.3
2022-08-07T03:43:03.320Z,11.2
2022-08-07T03:44:19.560Z,11.3
2022-08-07T03:46:52.054Z,11.2
2022-08-07T03:48:07.301Z,11.2
2022-08-07T03:49:23.542Z,11.1
2022-08-07T03:50:39.787Z,11.1
2022-08-07T03:51:56.019Z,11.1
2022-08-07T03:53:12.259Z,11.2
2022-08-07T03:54:28.501Z,11.2
2022-08-07T03:55:44.753Z,11.2
2022-08-07T03:57:00.994Z,11.2
2022-08-07T03:59:33.459Z,11.3
2022-08-07T04:00:49.717Z,11.3
2022-08-07T04:02:05.957Z,11.4
2022-08-07T04:03:22.186Z,11.4
2022-08-07T04:04:37.449Z,11.5
2022-08-07T04:07:09.934Z,11.6
2022-08-07T04:09:41.420Z,11.7
2022-08-07T04:10:56.683Z,11.8
2022-08-07T04:12:11.940Z,11.8
2022-08-07T04:13:28.181Z,11.9
2022-08-07T04:14:44.422Z,12
2022-08-07T04:16:00.679Z,12.1
2022-08-07T04:17:16.920Z,12.2
2022-08-07T04:18:33.143Z,12.2
2022-08-07T04:19:49.401Z,12.3
2022-08-07T04:21:05.624Z,12.4
2022-08-07T04:22:21.874Z,12.4
2022-08-07T04:23:38.118Z,12.4
2022-08-07T04:24:53.369Z,12.5
2022-08-07T04:26:08.638Z,12.5
2022-08-07T04:27:24.867Z,12.5
2022-08-07T04:28:41.120Z,12.5
2022-08-07T04:29:57.352Z,12.4
2022-08-07T04:31:13.600Z,12.4
2022-08-07T04:32:29.827Z,12.4
2022-08-07T04:33:46.081Z,12.3
2022-08-07T04:35:02.307Z,12.3
2022-08-07T04:36:18.552Z,12.2
2022-08-07T04:37:34.791Z,12.3
2022-08-07T04:38:51.026Z,12.2
2022-08-07T04:40:07.264Z,12.2
2022-08-07T04:41:23.514Z,12.2
2022-08-07T04:42:38.766Z,12.2
2022-08-07T04:43:55.011Z,12.2
2022-08-07T04:45:11.249Z,12.2
2022-08-07T04:46:27.483Z,12.2
2022-08-07T04:47:43.730Z,12.2
2022-08-07T04:48:59.972Z,12.2
2022-08-07T04:50:16.203Z,12.3
2022-08-07T04:51:32.462Z,12.3
2022-08-07T04:52:48.692Z,12.3
2022-08-07T04:54:04.938Z,12.3
2022-08-07T04:55:21.183Z,12.3
2022-08-07T04:56:37.422Z,12.4
2022-08-07T04:57:53.663Z,12.4
2022-08-07T05:00:25.145Z,12.4
2022-08-07T05:01:41.392Z,12.4
2022-08-07T05:02:57.622Z,12.5
2022-08-07T05:04:13.875Z,12.5
2022-08-07T05:05:30.117Z,12.5
2022-08-07T05:06:46.355Z,12.6
2022-08-07T05:08:02.594Z,12.6
2022-08-07T05:09:18.834Z,12.6
2022-08-07T05:10:35.082Z,12.7
2022-08-07T05:11:51.323Z,12.7
2022-08-07T05:13:07.565Z,12.8
2022-08-07T05:15:40.030Z,12.9
2022-08-07T05:16:55.305Z,12.9
2022-08-07T05:18:11.535Z,12.9
2022-08-07T05:19:27.775Z,12.9
2022-08-07T05:20:44.019Z,13
2022-08-07T05:22:00.262Z,13
2022-08-07T05:23:16.491Z,13.1
2022-08-07T05:24:32.736Z,13.1
2022-08-07T05:25:48.976Z,13.2
2022-08-07T05:27:05.226Z,13.3
2022-08-07T05:28:21.457Z,13.3
2022-08-07T05:29:37.695Z,13.4
2022-08-07T05:30:53.941Z,13.5
2022-08-07T05:32:10.179Z,13.5
2022-08-07T05:33:25.428Z,13.5
2022-08-07T05:34:41.681Z,13.6
2022-08-07T05:35:57.924Z,13.7
2022-08-07T05:37:14.148Z,13.7
2022-08-07T05:38:30.402Z,13.7
2022-08-07T05:39:46.649Z,13.8
2022-08-07T05:41:02.880Z,13.9
2022-08-07T05:42:19.116Z,13.9
2022-08-07T05:43:35.352Z,14
2022-08-07T05:44:51.609Z,14.1
2022-08-07T05:46:07.851Z,14.1
2022-08-07T05:47:24.093Z,14.2
2022-08-07T05:48:40.326Z,14.2
2022-08-07T05:49:55.571Z,14.2
2022-08-07T05:51:11.811Z,14.3
2022-08-07T05:52:28.053Z,14.4
2022-08-07T05:53:44.290Z,14.4
2022-08-07T05:55:00.539Z,14.5
2022-08-07T05:56:16.775Z,14.5
2022-08-07T05:57:33.013Z,14.6
2022-08-07T05:58:49.268Z,14.5
2022-08-07T06:00:05.489Z,14.6
2022-08-07T06:01:21.740Z,14.6
2022-08-07T06:02:37.977Z,14.6
2022-08-07T06:03:54.215Z,14.7
2022-08-07T06:05:10.471Z,14.7
2022-08-07T06:06:25.712Z,14.7
2022-08-07T06:07:41.948Z,14.7
2022-08-07T06:08:58.202Z,14.8
2022-08-07T06:10:14.436Z,14.8
2022-08-07T06:11:30.681Z,14.8
2022-08-07T06:12:46.920Z,14.9
2022-08-07T06:14:03.151Z,14.9
2022-08-07T06:15:19.397Z,14.9
2022-08-07T06:16:35.637Z,15
2022-08-07T06:17:51.877Z,15
2022-08-07T06:19:08.125Z,15.1
2022-08-07T06:20:24.369Z,15.2
2022-08-07T06:21:40.601Z,15.2
2022-08-07T06:22:55.862Z,15.3
2022-08-07T06:24:12.089Z,15.4
2022-08-07T06:25:28.345Z,15.4
2022-08-07T06:26:44.569Z,15.5
2022-08-07T06:28:00.816Z,15.5
2022-08-07T06:29:17.066Z,15.6
2022-08-07T06:30:33.292Z,15.7
2022-08-07T06:31:49.529Z,15.7
2022-08-07T06:33:05.778Z,15.7
2022-08-07T06:34:22.026Z,15.8
2022-08-07T06:35:38.262Z,15.8
2022-08-07T06:36:54.496Z,15.9
2022-08-07T06:38:10.747Z,15.9
2022-08-07T06:39:26.003Z,16
2022-08-07T06:40:42.241Z,16.1
2022-08-07T06:41:58.485Z,16.1
2022-08-07T06:43:14.709Z,16.2
2022-08-07T06:44:30.947Z,16.2
2022-08-07T06:45:47.199Z,16.3
2022-08-07T06:47:03.431Z,16.3
2022-08-07T06:48:19.668Z,16.4
2022-08-07T06:49:35.915Z,16.5
2022-08-07T06:50:52.160Z,16.5
2022-08-07T06:52:08.407Z,16.6
2022-08-07T06:53:24.637Z,16.7
2022-08-07T06:54:40.887Z,16.7
2022-08-07T06:55:56.132Z,16.8
2022-08-07T06:57:12.374Z,16.9
2022-08-07T06:58:28.620Z,16.9
2022-08-07T06:59:44.856Z,17
2022-08-07T07:01:01.097Z,17
2022-08-07T07:02:17.339Z,17
2022-08-07T07:03:33.577Z,17.1
2022-08-07T07:04:49.810Z,17.1
2022-08-07T07:06:06.052Z,17.2
2022-08-07T07:07:22.297Z,17.2
2022-08-07T07:08:38.529Z,17.3
2022-08-07T07:09:54.770Z,17.4
2022-08-07T07:11:11.010Z,17.5
2022-08-07T07:12:26.279Z,17.6
2022-08-07T07:13:42.515Z,17.6
2022-08-07T07:14:58.755Z,17.7
2022-08-07T07:16:14.993Z,17.7
2022-08-07T07:17:31.241Z,17.8
2022-08-07T07:18:47.473Z,17.8
2022-08-07T07:20:03.719Z,17.9
2022-08-07T07:21:19.950Z,17.9
2022-08-07T07:22:36.193Z,18
2022-08-07T07:23:52.437Z,18.1
2022-08-07T07:25:08.672Z,18.1
2022-08-07T07:26:24.916Z,18.2
2022-08-07T07:27:41.155Z,18.2
2022-08-07T07:28:56.403Z,18.3
2022-08-07T07:30:11.663Z,18.4
2022-08-07T07:31:27.909Z,18.5
2022-08-07T07:32:44.148Z,18.6
2022-08-07T07:34:00.399Z,18.7
2022-08-07T07:35:16.619Z,18.8
2022-08-07T07:36:32.865Z,18.9
2022-08-07T07:37:49.098Z,19.1
2022-08-07T07:39:05.345Z,19.2
2022-08-07T07:40:21.579Z,19.4
2022-08-07T07:41:37.830Z,19.4
2022-08-07T07:42:54.061Z,19.5
2022-08-07T07:44:10.316Z,19.6
2022-08-07T07:45:26.545Z,19.7
2022-08-07T07:46:41.800Z,19.7
2022-08-07T07:47:58.044Z,19.8
2022-08-07T07:49:14.287Z,19.8
2022-08-07T07:50:30.527Z,19.9
2022-08-07T07:51:46.767Z,20
2022-08-07T07:53:03.007Z,20
2022-08-07T07:54:19.234Z,20.1
2022-08-07T07:55:35.493Z,20.1
2022-08-07T07:56:51.714Z,20.2
2022-08-07T07:58:07.973Z,20.2
2022-08-07T07:59:24.203Z,20.2
2022-08-07T08:00:40.447Z,20.3
2022-08-07T08:01:56.684Z,20.3
2022-08-07T08:03:11.944Z,20.4
2022-08-07T08:04:28.183Z,20.6
2022-08-07T08:05:44.424Z,20.6
2022-08-07T08:07:00.650Z,20.6
2022-08-07T08:08:16.902Z,20.6
2022-08-07T08:09:33.149Z,20.7
2022-08-07T08:10:49.378Z,20.9
2022-08-07T08:12:05.630Z,21
2022-08-07T08:13:21.871Z,21
2022-08-07T08:14:38.093Z,21.1
2022-08-07T08:15:54.338Z,21.2
2022-08-07T08:17:10.573Z,21.3
2022-08-07T08:18:26.822Z,21.3
2022-08-07T08:19:42.066Z,21.4
2022-08-07T08:20:58.326Z,21.4
2022-08-07T08:22:14.554Z,21.4
2022-08-07T08:23:30.802Z,21.4
2022-08-07T08:24:47.028Z,21.4
2022-08-07T08:26:03.284Z,21.5
2022-08-07T08:27:19.507Z,21.4
2022-08-07T08:28:35.755Z,21.3
2022-08-07T08:29:51.990Z,21.1
2022-08-07T08:31:08.233Z,21.1
2022-08-07T08:33:40.728Z,21.1
2022-08-07T08:34:56.956Z,21.2
2022-08-07T08:37:28.442Z,21.4
2022-08-07T08:38:44.683Z,21.5
2022-08-07T08:40:00.927Z,21.6
2022-08-07T08:41:17.157Z,21.7
2022-08-07T08:42:33.401Z,21.8
2022-08-07T08:43:49.640Z,21.9
2022-08-07T08:45:05.887Z,21.9
2022-08-07T08:46:22.127Z,21.9
2022-08-07T08:47:38.363Z,21.9
2022-08-07T08:48:54.603Z,21.9
2022-08-07T08:50:10.842Z,21.9
2022-08-07T08:51:27.080Z,21.9
2022-08-07T08:52:42.334Z,21.9
2022-08-07T08:53:58.571Z,22
2022-08-07T08:55:14.823Z,22
2022-08-07T08:56:31.066Z,22
2022-08-07T08:57:47.292Z,22
2022-08-07T08:59:03.547Z,22
2022-08-07T09:00:19.786Z,22
2022-08-07T09:01:36.021Z,22
2022-08-07T09:02:52.256Z,22
2022-08-07T09:04:08.487Z,22
2022-08-07T09:05:24.739Z,22
2022-08-07T09:06:40.987Z,22
2022-08-07T09:07:57.220Z,22
2022-08-07T09:09:12.482Z,21.9
2022-08-07T09:10:28.711Z,21.7
2022-08-07T09:11:44.959Z,21.5
2022-08-07T09:13:01.189Z,21.3
2022-08-07T09:14:17.432Z,21.3
2022-08-07T09:15:33.672Z,21.4
2022-08-07T09:16:49.927Z,21.5
2022-08-07T09:19:22.389Z,21.8
2022-08-07T09:20:38.634Z,22
2022-08-07T09:21:54.873Z,22.1
2022-08-07T09:23:11.110Z,22.1
2022-08-07T09:24:27.351Z,22.2
2022-08-07T09:25:42.606Z,22.3
2022-08-07T09:26:58.848Z,22.4
2022-08-07T09:28:15.089Z,22.4
2022-08-07T09:29:31.325Z,22.4
2022-08-07T09:30:47.568Z,22.5
2022-08-07T09:32:03.815Z,22.6
2022-08-07T09:33:20.052Z,22.5
2022-08-07T09:34:36.288Z,22.6
2022-08-07T09:35:52.532Z,22.7
2022-08-07T09:37:08.773Z,22.7
2022-08-07T09:38:25.011Z,22.8
2022-08-07T09:39:41.243Z,22.7
2022-08-07T09:42:13.733Z,22.8
2022-08-07T09:43:28.983Z,22.9
2022-08-07T09:44:45.230Z,22.9
2022-08-07T09:46:01.463Z,22.9
2022-08-07T09:47:17.706Z,22.9
2022-08-07T09:49:50.191Z,22.4
2022-08-07T09:51:06.437Z,22.3
2022-08-07T09:52:22.676Z,22.2
2022-08-07T09:53:38.911Z,22.3
2022-08-07T09:54:55.152Z,22.4
2022-08-07T09:56:11.389Z,22.5
2022-08-07T09:57:27.635Z,22.5
2022-08-07T09:58:43.878Z,22.5
2022-08-07T09:59:59.132Z,22.6
2022-08-07T10:01:15.365Z,22.7
2022-08-07T10:02:31.604Z,22.8
2022-08-07T10:03:47.840Z,22.8
2022-08-07T10:05:04.093Z,22.8
2022-08-07T10:06:20.338Z,22.9
2022-08-07T10:07:36.565Z,23
2022-08-07T10:08:52.819Z,23
2022-08-07T10:10:09.056Z,23.1
2022-08-07T10:11:25.296Z,23.2
2022-08-07T10:12:41.539Z,23.1
2022-08-07T10:13:57.781Z,23.2
2022-08-07T10:15:14.024Z,23.2
2022-08-07T10:16:29.259Z,23.2
2022-08-07T10:17:45.501Z,23.2
2022-08-07T10:19:01.752Z,23.2
2022-08-07T10:20:17.978Z,23.1
2022-08-07T10:21:34.238Z,23
2022-08-07T10:22:50.461Z,23
2022-08-07T10:24:06.714Z,22.9
2022-08-07T10:25:22.941Z,22.9
2022-08-07T10:26:39.186Z,22.9
2022-08-07T10:27:55.429Z,22.8
2022-08-07T10:29:11.670Z,22.9
2022-08-07T10:30:27.911Z,22.8
2022-08-07T10:31:44.158Z,22.9
2022-08-07T10:32:59.414Z,22.9
2022-08-07T10:34:15.641Z,23
2022-08-07T10:35:31.877Z,22.9
2022-08-07T10:36:48.122Z,22.8
2022-08-07T10:38:04.372Z,22.8
2022-08-07T10:39:20.606Z,22.8
2022-08-07T10:40:36.839Z,22.8
2022-08-07T10:41:53.079Z,22.8
2022-08-07T10:43:09.321Z,22.8
2022-08-07T10:44:25.556Z,22.9
2022-08-07T10:45:41.812Z,23
2022-08-07T10:46:58.051Z,22.9
2022-08-07T10:48:14.294Z,22.9
2022-08-07T10:49:29.545Z,23
2022-08-07T10:50:45.782Z,23
2022-08-07T10:52:02.030Z,23.1
2022-08-07T10:53:18.266Z,23.1
2022-08-07T10:54:34.500Z,23.2
2022-08-07T10:55:50.750Z,23.2
2022-08-07T10:57:06.975Z,23.2
2022-08-07T10:58:23.213Z,23.1
2022-08-07T10:59:39.466Z,23
2022-08-07T11:00:55.701Z,22.9
2022-08-07T11:02:11.934Z,22.7
2022-08-07T11:03:28.189Z,22.6
2022-08-07T11:04:44.444Z,22.6
2022-08-07T11:05:59.687Z,22.6
2022-08-07T11:07:15.929Z,22.6
2022-08-07T11:08:32.168Z,22.6
2022-08-07T11:09:48.408Z,22.6
2022-08-07T11:11:04.630Z,22.7
2022-08-07T11:13:37.122Z,22.8
2022-08-07T11:14:53.364Z,22.9
2022-08-07T11:16:09.591Z,22.9
2022-08-07T11:17:25.845Z,22.9
2022-08-07T11:18:42.072Z,23
2022-08-07T11:19:58.321Z,23.1
2022-08-07T11:21:14.552Z,23.2
2022-08-07T11:22:29.819Z,23.2
2022-08-07T11:23:46.053Z,23.2
2022-08-07T11:25:02.296Z,23.2
2022-08-07T11:26:18.535Z,23.1
2022-08-07T11:27:34.770Z,23.1
2022-08-07T11:28:51.020Z,23.1
2022-08-07T11:30:07.251Z,23.1
2022-08-07T11:31:23.507Z,23
2022-08-07T11:32:39.741Z,23
2022-08-07T11:33:55.983Z,23
2022-08-07T11:35:12.228Z,23
2022-08-07T11:36:28.460Z,23
2022-08-07T11:37:44.703Z,23
2022-08-07T11:38:59.955Z,23
2022-08-07T11:40:16.192Z,23.1
2022-08-07T11:41:32.438Z,23.1
2022-08-07T11:44:04.919Z,23.3
2022-08-07T11:45:20.182Z,23.3
2022-08-07T11:46:36.424Z,23.2
2022-08-07T11:47:52.656Z,23.2
2022-08-07T11:49:08.900Z,23.2
2022-08-07T11:50:25.147Z,23.2
2022-08-07T11:51:41.386Z,23.3
2022-08-07T11:52:57.611Z,23.3
2022-08-07T11:54:13.869Z,23.3
2022-08-07T11:55:30.108Z,23.3
2022-08-07T11:56:46.347Z,23.3
2022-08-07T11:58:02.584Z,23.3
2022-08-07T11:59:18.814Z,23.3
2022-08-07T12:00:35.064Z,23.3
2022-08-07T12:01:50.326Z,23.3
2022-08-07T12:03:06.556Z,23.3
2022-08-07T12:04:22.801Z,23.3
2022-08-07T12:05:39.035Z,23.3
2022-08-07T12:06:55.285Z,23.4
2022-08-07T12:08:11.514Z,23.4
2022-08-07T12:09:27.755Z,23.4
2022-08-07T12:10:44.004Z,23.5
2022-08-07T12:12:00.243Z,23.6
2022-08-07T12:13:16.468Z,23.6
2022-08-07T12:14:32.715Z,23.7
2022-08-07T12:15:48.951Z,23.7
2022-08-07T12:17:05.188Z,23.9
2022-08-07T12:18:20.448Z,23.9
2022-08-07T12:19:36.698Z,23.9
2022-08-07T12:20:52.941Z,23.9
2022-08-07T12:22:09.169Z,23.8
2022-08-07T12:23:25.424Z,23.8
2022-08-07T12:24:41.652Z,23.8
2022-08-07T12:25:57.885Z,23.8
2022-08-07T12:27:14.142Z,23.7
2022-08-07T12:28:30.367Z,23.7
2022-08-07T12:29:46.618Z,23.7
2022-08-07T12:31:02.853Z,23.7
2022-08-07T12:32:19.089Z,23.7
2022-08-07T12:33:35.344Z,23.7
2022-08-07T12:34:50.596Z,23.7
2022-08-07T12:36:06.829Z,23.6
2022-08-07T12:37:23.072Z,23.7
2022-08-07T12:38:39.315Z,23.7
2022-08-07T12:39:55.553Z,23.7
2022-08-07T12:41:11.795Z,23.7
2022-08-07T12:42:28.039Z,23.7
2022-08-07T12:45:00.510Z,23.8
2022-08-07T12:46:16.759Z,23.8
2022-08-07T12:47:33.000Z,23.8
2022-08-07T12:48:49.225Z,23.8
2022-08-07T12:50:05.470Z,23.8
2022-08-07T12:51:20.738Z,23.8
2022-08-07T12:52:36.972Z,23.9
2022-08-07T12:53:53.200Z,23.8
2022-08-07T12:55:09.452Z,23.9
2022-08-07T12:56:25.691Z,23.9
2022-08-07T12:57:41.921Z,23.9
2022-08-07T12:58:58.179Z,23.9
2022-08-07T13:00:14.418Z,23.9
2022-08-07T13:01:30.656Z,23.9
2022-08-07T13:02:46.887Z,23.9
2022-08-07T13:04:03.119Z,23.9
2022-08-07T13:05:19.361Z,23.9
2022-08-07T13:06:35.609Z,24
2022-08-07T13:07:51.840Z,24
2022-08-07T13:09:07.107Z,24.1
2022-08-07T13:10:23.346Z,24.1
2022-08-07T13:11:39.583Z,24.1
2022-08-07T13:12:55.816Z,24.1
2022-08-07T13:14:12.067Z,24.2
2022-08-07T13:15:28.296Z,24.2
2022-08-07T13:16:44.549Z,24.2
2022-08-07T13:18:00.796Z,24.2
2022-08-07T13:19:17.035Z,24.2
2022-08-07T13:20:33.270Z,24.2
2022-08-07T13:21:49.497Z,24.1
2022-08-07T13:23:05.744Z,24.1
2022-08-07T13:24:21.978Z,24.1
2022-08-07T13:25:37.246Z,24.2
2022-08-07T13:26:53.485Z,24.2
2022-08-07T13:28:09.732Z,24.1
2022-08-07T13:29:25.961Z,24
2022-08-07T13:30:42.198Z,24
2022-08-07T13:31:58.441Z,24
2022-08-07T13:33:14.675Z,24
2022-08-07T13:34:30.922Z,24
2022-08-07T13:35:47.155Z,24.1
2022-08-07T13:37:03.403Z,24.1
2022-08-07T13:38:19.648Z,24
2022-08-07T13:39:35.896Z,24.1
2022-08-07T13:40:52.130Z,24.2
2022-08-07T13:42:07.377Z,24.2
2022-08-07T13:43:23.623Z,24.2
2022-08-07T13:44:39.857Z,24.3
2022-08-07T13:45:56.096Z,24.4
2022-08-07T13:47:12.353Z,24.4
2022-08-07T13:48:28.586Z,24.4
2022-08-07T13:49:44.831Z,24.4
2022-08-07T13:51:01.063Z,24.5
2022-08-07T13:52:17.299Z,24.5
2022-08-07T13:53:33.547Z,24.5
2022-08-07T13:54:49.780Z,24.4
2022-08-07T13:56:06.029Z,24.4
2022-08-07T13:57:22.257Z,24.4
2022-08-07T13:58:37.528Z,24.4
2022-08-07T13:59:53.762Z,24.5
2022-08-07T14:01:09.996Z,24.5
2022-08-07T14:02:26.244Z,24.5
2022-08-07T14:03:42.481Z,24.5
2022-08-07T14:04:58.727Z,24.4
2022-08-07T14:06:14.960Z,24.5
2022-08-07T14:07:31.214Z,24.5
2022-08-07T14:08:47.453Z,24.5
2022-08-07T14:11:19.916Z,24.5
2022-08-07T14:12:36.171Z,24.5
2022-08-07T14:13:52.406Z,24.6
2022-08-07T14:15:07.658Z,24.5
2022-08-07T14:16:23.895Z,24.5
2022-08-07T14:17:40.144Z,24.5
2022-08-07T14:18:56.395Z,24.6
2022-08-07T14:20:12.615Z,24.6
2022-08-07T14:21:28.863Z,24.5
2022-08-07T14:22:45.106Z,24.5
2022-08-07T14:24:01.353Z,24.6
2022-08-07T14:25:17.580Z,24.5
2022-08-07T14:26:33.835Z,24.6
2022-08-07T14:27:50.075Z,24.6
2022-08-07T14:29:06.300Z,24.7
2022-08-07T14:30:22.548Z,24.8
2022-08-07T14:31:37.796Z,24.9
2022-08-07T14:32:54.042Z,24.9
2022-08-07T14:34:10.273Z,24.9
2022-08-07T14:35:26.528Z,24.8
2022-08-07T14:37:58.997Z,24.7
2022-08-07T14:39:15.248Z,24.7
2022-08-07T14:40:31.476Z,24.7
2022-08-07T14:41:47.729Z,24.7
2022-08-07T14:43:03.958Z,24.7
2022-08-07T14:44:20.193Z,24.7
2022-08-07T14:46:52.674Z,24.6
2022-08-07T14:48:07.930Z,24.6
2022-08-07T14:49:24.190Z,24.6
2022-08-07T14:50:40.418Z,24.6
2022-08-07T14:51:56.669Z,24.6
2022-08-07T14:53:12.900Z,24.7
2022-08-07T14:54:29.142Z,24.7
2022-08-07T14:55:45.374Z,24.7
2022-08-07T14:57:01.624Z,24.7
2022-08-07T14:58:17.869Z,24.6
2022-08-07T14:59:34.112Z,24.6
2022-08-07T15:00:50.338Z,24.7
2022-08-07T15:02:06.586Z,24.7
2022-08-07T15:03:22.824Z,24.7
2022-08-07T15:04:38.085Z,24.8
2022-08-07T15:05:54.320Z,24.8
2022-08-07T15:07:10.555Z,24.9
2022-08-07T15:08:26.810Z,24.9
2022-08-07T15:09:43.045Z,25
2022-08-07T15:10:59.272Z,25
2022-08-07T15:12:15.527Z,25
2022-08-07T15:13:31.755Z,25
2022-08-07T15:14:48.002Z,25
2022-08-07T15:16:04.249Z,25.1
2022-08-07T15:17:20.486Z,25.1
2022-08-07T15:18:36.731Z,25.1
2022-08-07T15:19:52.957Z,25.1
2022-08-07T15:21:08.221Z,25.1
2022-08-07T15:22:24.452Z,25.1
2022-08-07T15:24:56.934Z,25.1
2022-08-07T15:26:13.182Z,25
2022-08-07T15:27:29.413Z,25
2022-08-07T15:28:45.652Z,25
2022-08-07T15:30:01.904Z,24.9
2022-08-07T15:32:34.385Z,24.9
2022-08-07T15:33:50.622Z,24.9
2022-08-07T15:35:06.854Z,24.9
2022-08-07T15:36:23.108Z,24.9
2022-08-07T15:37:38.366Z,24.9
2022-08-07T15:38:54.604Z,24.9
2022-08-07T15:40:10.841Z,24.9
2022-08-07T15:41:27.070Z,25
2022-08-07T15:42:43.324Z,25.1
2022-08-07T15:43:59.555Z,25.1
2022-08-07T15:45:15.799Z,25
2022-08-07T15:46:32.036Z,25
2022-08-07T15:47:48.286Z,24.9
2022-08-07T15:49:04.518Z,24.9
2022-08-07T15:50:20.768Z,24.9
2022-08-07T15:51:36.993Z,24.9
2022-08-07T15:52:53.246Z,25
2022-08-07T15:54:08.504Z,24.9
2022-08-07T15:55:24.726Z,25
2022-08-07T15:56:40.977Z,25
2022-08-07T15:57:57.221Z,25
2022-08-07T15:59:13.450Z,25
2022-08-07T16:00:28.723Z,25
2022-08-07T16:01:44.959Z,25
2022-08-07T16:03:01.202Z,24.9
2022-08-07T16:04:17.439Z,24.9
2022-08-07T16:05:33.673Z,25
2022-08-07T16:06:49.916Z,25
2022-08-07T16:08:06.169Z,25
2022-08-07T16:09:22.390Z,25.1
2022-08-07T16:10:38.637Z,25.2
2022-08-07T16:11:54.884Z,25.2
2022-08-07T16:13:11.126Z,25.2
2022-08-07T16:14:27.361Z,25.2
2022-08-07T16:15:43.601Z,25.2
2022-08-07T16:16:58.862Z,25.3
2022-08-07T16:18:15.107Z,25.3
2022-08-07T16:20:47.576Z,25.4
2022-08-07T16:22:03.822Z,25.4
2022-08-07T16:23:20.058Z,25.5
2022-08-07T16:25:52.531Z,25.6
2022-08-07T16:27:08.770Z,25.6
2022-08-07T16:28:25.010Z,25.7
2022-08-07T16:29:41.261Z,25.8
2022-08-07T16:30:57.498Z,25.9
2022-08-07T16:33:29.982Z,26.1
2022-08-07T16:34:45.237Z,26.1
2022-08-07T16:36:00.505Z,26.3
2022-08-07T16:37:16.742Z,26.3
2022-08-07T16:38:32.984Z,26.4
2022-08-07T16:39:49.223Z,26.4
2022-08-07T16:41:05.454Z,26.4
2022-08-07T16:42:21.698Z,26.5
2022-08-07T16:43:37.951Z,26.5
2022-08-07T16:44:54.188Z,26.4
2022-08-07T16:46:10.427Z,26.5
2022-08-07T16:48:42.911Z,26.6
2022-08-07T16:49:59.147Z,26.8
2022-08-07T16:51:15.385Z,26.9
2022-08-07T16:52:30.644Z,26.9
2022-08-07T16:53:46.887Z,26.8
2022-08-07T16:55:03.122Z,26.9
2022-08-07T16:56:19.364Z,26.9
2022-08-07T16:57:35.596Z,27
2022-08-07T16:58:51.840Z,27
2022-08-07T17:00:08.075Z,27.1
2022-08-07T17:01:24.000Z,27.2
2022-08-07T17:02:39.582Z,27.2
2022-08-07T17:03:54.833Z,27.1
2022-08-07T17:05:11.086Z,26.9
2022-08-07T17:06:27.322Z,26.9
2022-08-07T17:07:43.567Z,26.8
2022-08-07T17:08:59.806Z,26.8
2022-08-07T17:10:16.044Z,26.7
2022-08-07T17:11:32.290Z,26.6
2022-08-07T17:12:48.514Z,26.8
2022-08-07T17:14:04.761Z,26.9
2022-08-07T17:15:20.994Z,27.1
2022-08-07T17:16:37.242Z,27.2
2022-08-07T17:17:53.475Z,27.2
2022-08-07T17:19:09.716Z,27.4
2022-08-07T17:20:24.981Z,27.3
2022-08-07T17:21:41.228Z,27.3
2022-08-07T17:22:57.451Z,27.3
2022-08-07T17:24:13.703Z,27.4
2022-08-07T17:25:29.936Z,27.3
2022-08-07T17:26:46.188Z,27.1
2022-08-07T17:28:02.423Z,27.2
2022-08-07T17:29:18.658Z,27
2022-08-07T17:30:34.911Z,27
2022-08-07T17:31:51.141Z,27.3
2022-08-07T17:33:07.381Z,27.4
2022-08-07T17:34:23.613Z,27.5
2022-08-07T17:35:39.868Z,27.4
2022-08-07T17:36:55.129Z,27.2